Terminal Aerodrome Forecast
Issued by NWS

Home | Current Version | Previous Version | Text Only | Print | Product List | Glossary On
Versions: 1 2 3 4 5 6 7 8 9 10 11 12 13 14 15 16
000
FTUS43 KDVN 201700
TAFBRL
TAF
KBRL 201720Z 2018/2118 25010G18KT P6SM BKN017
     FM202000 26010KT P6SM SCT020 BKN050
      TEMPO 2020/2022 4SM TSRA BR BKN025CB
     FM210200 30010KT P6SM SCT050=

USA.gov is the U.S. government's official web portal to all federal, state and local government web resources and services.